sensor_id;sensor_type;location;lat;lon;timestamp;temperature;humidity
51595;DHT22;37677;53.254;6.594;2023-05-10T00:02:07;13.60;99.90
51595;DHT22;37677;53.254;6.594;2023-05-10T00:04:33;13.50;99.90
51595;DHT22;37677;53.254;6.594;2023-05-10T00:06:58;13.40;99.90
51595;DHT22;37677;53.254;6.594;2023-05-10T00:09:24;13.70;99.90
51595;DHT22;37677;53.254;6.594;2023-05-10T00:11:50;13.50;99.90
51595;DHT22;37677;53.254;6.594;2023-05-10T00:14:16;13.30;99.90
51595;DHT22;37677;53.254;6.594;2023-05-10T00:16:42;13.40;99.90
51595;DHT22;37677;53.254;6.594;2023-05-10T00:19:07;13.20;99.90
51595;DHT22;37677;53.254;6.594;2023-05-10T00:21:33;13.20;99.90
51595;DHT22;37677;53.254;6.594;2023-05-10T00:23:59;13.20;99.90
51595;DHT22;37677;53.254;6.594;2023-05-10T00:26:25;14.10;99.90
51595;DHT22;37677;53.254;6.594;2023-05-10T00:28:51;13.30;99.90
51595;DHT22;37677;53.254;6.594;2023-05-10T00:31:16;13.10;99.90
51595;DHT22;37677;53.254;6.594;2023-05-10T00:33:42;13.30;99.90
51595;DHT22;37677;53.254;6.594;2023-05-10T00:36:08;13.10;99.90
51595;DHT22;37677;53.254;6.594;2023-05-10T00:38:34;13.30;99.90
51595;DHT22;37677;53.254;6.594;2023-05-10T00:40:59;14.50;99.90
51595;DHT22;37677;53.254;6.594;2023-05-10T00:43:25;13.30;99.90
51595;DHT22;37677;53.254;6.594;2023-05-10T00:45:51;13.20;99.90
51595;DHT22;37677;53.254;6.594;2023-05-10T00:48:18;13.50;99.90
51595;DHT22;37677;53.254;6.594;2023-05-10T00:50:44;13.30;99.90
51595;DHT22;37677;53.254;6.594;2023-05-10T00:53:10;13.90;99.90
51595;DHT22;37677;53.254;6.594;2023-05-10T00:55:36;13.10;99.90
51595;DHT22;37677;53.254;6.594;2023-05-10T00:58:03;13.00;99.90
51595;DHT22;37677;53.254;6.594;2023-05-10T01:00:28;13.00;99.90
51595;DHT22;37677;53.254;6.594;2023-05-10T01:02:55;13.20;99.90
51595;DHT22;37677;53.254;6.594;2023-05-10T01:05:20;13.00;99.90
51595;DHT22;37677;53.254;6.594;2023-05-10T01:07:46;12.90;99.90
51595;DHT22;37677;53.254;6.594;2023-05-10T01:10:12;14.20;99.90
51595;DHT22;37677;53.254;6.594;2023-05-10T01:12:41;12.90;99.90
51595;DHT22;37677;53.254;6.594;2023-05-10T01:15:09;14.40;99.90
51595;DHT22;37677;53.254;6.594;2023-05-10T01:17:38;12.80;99.90
51595;DHT22;37677;53.254;6.594;2023-05-10T01:20:05;13.00;99.90
51595;DHT22;37677;53.254;6.594;2023-05-10T01:26:23;12.90;99.90
51595;DHT22;37677;53.254;6.594;2023-05-10T01:34:07;12.90;99.90
51595;DHT22;37677;53.254;6.594;2023-05-10T01:36:45;12.90;99.90
51595;DHT22;37677;53.254;6.594;2023-05-10T01:41:52;12.70;99.90
51595;DHT22;37677;53.254;6.594;2023-05-10T01:47:18;12.70;99.90
51595;DHT22;37677;53.254;6.594;2023-05-10T01:49:49;13.90;99.90
51595;DHT22;37677;53.254;6.594;2023-05-10T01:52:18;12.70;99.90
51595;DHT22;37677;53.254;6.594;2023-05-10T01:54:50;12.80;99.90
51595;DHT22;37677;53.254;6.594;2023-05-10T01:57:20;12.60;99.90
51595;DHT22;37677;53.254;6.594;2023-05-10T01:59:49;12.70;99.90
51595;DHT22;37677;53.254;6.594;2023-05-10T02:02:18;12.70;99.90
51595;DHT22;37677;53.254;6.594;2023-05-10T02:04:46;12.80;99.90
51595;DHT22;37677;53.254;6.594;2023-05-10T02:07:13;12.60;99.90
51595;DHT22;37677;53.254;6.594;2023-05-10T02:09:40;12.80;99.90
51595;DHT22;37677;53.254;6.594;2023-05-10T02:12:09;12.70;99.90
51595;DHT22;37677;53.254;6.594;2023-05-10T02:14:38;12.80;99.90
51595;DHT22;37677;53.254;6.594;2023-05-10T02:17:07;12.50;99.90
51595;DHT22;37677;53.254;6.594;2023-05-10T02:19:36;12.70;99.90
51595;DHT22;37677;53.254;6.594;2023-05-10T02:22:03;12.70;99.90
51595;DHT22;37677;53.254;6.594;2023-05-10T02:24:29;13.00;99.90
51595;DHT22;37677;53.254;6.594;2023-05-10T02:26:56;13.30;99.90
51595;DHT22;37677;53.254;6.594;2023-05-10T02:29:24;12.60;99.90
51595;DHT22;37677;53.254;6.594;2023-05-10T02:31:52;12.50;99.90
51595;DHT22;37677;53.254;6.594;2023-05-10T02:34:21;12.60;99.90
51595;DHT22;37677;53.254;6.594;2023-05-10T02:36:47;12.70;99.90
51595;DHT22;37677;53.254;6.594;2023-05-10T02:39:14;12.50;99.90
51595;DHT22;37677;53.254;6.594;2023-05-10T02:41:42;12.50;99.90
51595;DHT22;37677;53.254;6.594;2023-05-10T02:44:09;12.70;99.90
51595;DHT22;37677;53.254;6.594;2023-05-10T02:46:36;13.40;99.90
51595;DHT22;37677;53.254;6.594;2023-05-10T02:49:03;12.60;99.90
51595;DHT22;37677;53.254;6.594;2023-05-10T02:51:31;12.40;99.90
51595;DHT22;37677;53.254;6.594;2023-05-10T02:54:00;12.50;99.90
51595;DHT22;37677;53.254;6.594;2023-05-10T02:56:33;12.40;99.90
51595;DHT22;37677;53.254;6.594;2023-05-10T02:58:59;12.60;99.90
51595;DHT22;37677;53.254;6.594;2023-05-10T03:01:25;12.70;99.90
51595;DHT22;37677;53.254;6.594;2023-05-10T03:03:51;12.40;99.90
51595;DHT22;37677;53.254;6.594;2023-05-10T03:06:16;12.50;99.90
51595;DHT22;37677;53.254;6.594;2023-05-10T03:08:43;12.50;99.90
51595;DHT22;37677;53.254;6.594;2023-05-10T03:14:13;12.60;99.90
51595;DHT22;37677;53.254;6.594;2023-05-10T03:16:47;12.50;99.90
51595;DHT22;37677;53.254;6.594;2023-05-10T03:19:29;12.50;99.90
51595;DHT22;37677;53.254;6.594;2023-05-10T03:21:59;12.70;99.90
51595;DHT22;37677;53.254;6.594;2023-05-10T03:24:29;12.60;99.90
51595;DHT22;37677;53.254;6.594;2023-05-10T03:26:56;13.30;99.90
51595;DHT22;37677;53.254;6.594;2023-05-10T03:29:25;12.30;99.90
51595;DHT22;37677;53.254;6.594;2023-05-10T03:31:51;12.50;99.90
51595;DHT22;37677;53.254;6.594;2023-05-10T03:34:23;13.50;99.90
51595;DHT22;37677;53.254;6.594;2023-05-10T03:36:49;12.40;99.90
51595;DHT22;37677;53.254;6.594;2023-05-10T03:39:15;13.80;99.90
51595;DHT22;37677;53.254;6.594;2023-05-10T03:41:40;12.60;99.90
51595;DHT22;37677;53.254;6.594;2023-05-10T03:44:06;13.60;99.90
51595;DHT22;37677;53.254;6.594;2023-05-10T03:46:32;12.40;99.90
51595;DHT22;37677;53.254;6.594;2023-05-10T03:48:58;13.00;99.90
51595;DHT22;37677;53.254;6.594;2023-05-10T03:51:23;13.00;99.90
51595;DHT22;37677;53.254;6.594;2023-05-10T03:53:53;12.50;99.90
51595;DHT22;37677;53.254;6.594;2023-05-10T03:56:19;12.50;99.90
51595;DHT22;37677;53.254;6.594;2023-05-10T03:58:46;12.70;99.90
51595;DHT22;37677;53.254;6.594;2023-05-10T04:01:12;12.50;99.90
51595;DHT22;37677;53.254;6.594;2023-05-10T04:03:37;12.60;99.90
51595;DHT22;37677;53.254;6.594;2023-05-10T04:06:04;12.60;99.90
51595;DHT22;37677;53.254;6.594;2023-05-10T04:08:31;12.50;99.90
51595;DHT22;37677;53.254;6.594;2023-05-10T04:11:10;12.30;99.90
51595;DHT22;37677;53.254;6.594;2023-05-10T04:13:36;12.30;99.90
51595;DHT22;37677;53.254;6.594;2023-05-10T04:16:04;12.50;99.90
51595;DHT22;37677;53.254;6.594;2023-05-10T04:18:30;12.30;99.90
51595;DHT22;37677;53.254;6.594;2023-05-10T04:20:55;12.20;99.90
51595;DHT22;37677;53.254;6.594;2023-05-10T04:23:21;12.40;99.90
51595;DHT22;37677;53.254;6.594;2023-05-10T04:25:47;12.20;99.90
51595;DHT22;37677;53.254;6.594;2023-05-10T04:28:12;12.70;99.90
51595;DHT22;37677;53.254;6.594;2023-05-10T04:30:38;12.40;99.90
51595;DHT22;37677;53.254;6.594;2023-05-10T04:33:04;12.70;99.90
51595;DHT22;37677;53.254;6.594;2023-05-10T04:35:29;12.20;99.90
51595;DHT22;37677;53.254;6.594;2023-05-10T04:37:55;12.60;99.90
51595;DHT22;37677;53.254;6.594;2023-05-10T04:40:21;12.40;99.90
51595;DHT22;37677;53.254;6.594;2023-05-10T04:42:47;12.40;99.90
51595;DHT22;37677;53.254;6.594;2023-05-10T04:45:12;12.30;99.90
51595;DHT22;37677;53.254;6.594;2023-05-10T04:47:40;13.10;99.90
51595;DHT22;37677;53.254;6.594;2023-05-10T04:50:06;12.20;99.90
51595;DHT22;37677;53.254;6.594;2023-05-10T04:52:32;12.30;99.90
51595;DHT22;37677;53.254;6.594;2023-05-10T04:54:58;12.60;99.90
51595;DHT22;37677;53.254;6.594;2023-05-10T04:57:24;12.20;99.90
51595;DHT22;37677;53.254;6.594;2023-05-10T04:59:50;12.20;99.90
51595;DHT22;37677;53.254;6.594;2023-05-10T05:02:16;13.40;99.90
51595;DHT22;37677;53.254;6.594;2023-05-10T05:04:41;12.40;99.90
51595;DHT22;37677;53.254;6.594;2023-05-10T05:07:07;12.50;99.90
51595;DHT22;37677;53.254;6.594;2023-05-10T05:09:33;12.40;99.90
51595;DHT22;37677;53.254;6.594;2023-05-10T05:11:58;12.20;99.90
51595;DHT22;37677;53.254;6.594;2023-05-10T05:14:24;12.20;99.90
51595;DHT22;37677;53.254;6.594;2023-05-10T05:16:53;12.30;99.90
51595;DHT22;37677;53.254;6.594;2023-05-10T05:19:19;12.30;99.90
51595;DHT22;37677;53.254;6.594;2023-05-10T05:21:44;10.60;99.90
51595;DHT22;37677;53.254;6.594;2023-05-10T05:24:10;12.20;99.90
51595;DHT22;37677;53.254;6.594;2023-05-10T05:26:38;12.20;99.90
51595;DHT22;37677;53.254;6.594;2023-05-10T05:29:04;12.40;99.90
51595;DHT22;37677;53.254;6.594;2023-05-10T05:31:29;12.40;99.90
51595;DHT22;37677;53.254;6.594;2023-05-10T05:33:55;11.60;99.90
51595;DHT22;37677;53.254;6.594;2023-05-10T05:36:21;12.50;99.90
51595;DHT22;37677;53.254;6.594;2023-05-10T05:38:47;12.40;99.90
51595;DHT22;37677;53.254;6.594;2023-05-10T05:41:13;12.50;99.90
51595;DHT22;37677;53.254;6.594;2023-05-10T05:43:38;12.70;99.90
51595;DHT22;37677;53.254;6.594;2023-05-10T05:46:04;12.40;99.90
51595;DHT22;37677;53.254;6.594;2023-05-10T05:48:31;12.40;99.90
51595;DHT22;37677;53.254;6.594;2023-05-10T05:50:57;12.60;99.90
51595;DHT22;37677;53.254;6.594;2023-05-10T05:53:23;12.40;99.90
51595;DHT22;37677;53.254;6.594;2023-05-10T05:55:57;12.40;99.90
51595;DHT22;37677;53.254;6.594;2023-05-10T05:58:23;12.30;99.90
51595;DHT22;37677;53.254;6.594;2023-05-10T06:00:49;12.40;99.90
51595;DHT22;37677;53.254;6.594;2023-05-10T06:03:15;13.60;99.90
51595;DHT22;37677;53.254;6.594;2023-05-10T06:05:41;12.50;99.90
51595;DHT22;37677;53.254;6.594;2023-05-10T06:08:07;13.90;99.90
51595;DHT22;37677;53.254;6.594;2023-05-10T06:10:32;12.40;99.90
51595;DHT22;37677;53.254;6.594;2023-05-10T06:12:58;12.30;99.90
51595;DHT22;37677;53.254;6.594;2023-05-10T06:15:23;13.00;99.90
51595;DHT22;37677;53.254;6.594;2023-05-10T06:17:50;12.40;99.90
51595;DHT22;37677;53.254;6.594;2023-05-10T06:20:16;14.10;99.90
51595;DHT22;37677;53.254;6.594;2023-05-10T06:22:42;13.00;99.90
51595;DHT22;37677;53.254;6.594;2023-05-10T06:25:08;12.80;99.90
51595;DHT22;37677;53.254;6.594;2023-05-10T06:27:34;12.60;99.90
51595;DHT22;37677;53.254;6.594;2023-05-10T06:30:00;12.70;99.90
51595;DHT22;37677;53.254;6.594;2023-05-10T06:32:25;12.60;99.90
51595;DHT22;37677;53.254;6.594;2023-05-10T06:34:51;12.60;99.90
51595;DHT22;37677;53.254;6.594;2023-05-10T06:37:17;12.40;99.90
51595;DHT22;37677;53.254;6.594;2023-05-10T06:39:43;12.40;99.90
51595;DHT22;37677;53.254;6.594;2023-05-10T06:42:09;12.50;99.90
51595;DHT22;37677;53.254;6.594;2023-05-10T06:44:34;13.30;99.90
51595;DHT22;37677;53.254;6.594;2023-05-10T06:47:00;12.30;99.90
51595;DHT22;37677;53.254;6.594;2023-05-10T06:49:26;12.30;99.90
51595;DHT22;37677;53.254;6.594;2023-05-10T06:51:51;12.80;99.90
51595;DHT22;37677;53.254;6.594;2023-05-10T06:54:17;12.50;99.90
51595;DHT22;37677;53.254;6.594;2023-05-10T06:56:43;12.40;99.90
51595;DHT22;37677;53.254;6.594;2023-05-10T06:59:08;13.40;99.90
51595;DHT22;37677;53.254;6.594;2023-05-10T07:01:34;12.50;99.90
51595;DHT22;37677;53.254;6.594;2023-05-10T07:04:00;12.40;99.90
51595;DHT22;37677;53.254;6.594;2023-05-10T07:06:26;12.40;99.90
51595;DHT22;37677;53.254;6.594;2023-05-10T07:08:52;12.40;99.90
51595;DHT22;37677;53.254;6.594;2023-05-10T07:11:18;12.20;99.90
51595;DHT22;37677;53.254;6.594;2023-05-10T07:13:44;12.30;99.90
51595;DHT22;37677;53.254;6.594;2023-05-10T07:16:11;12.50;99.90
51595;DHT22;37677;53.254;6.594;2023-05-10T07:18:37;13.20;99.90
51595;DHT22;37677;53.254;6.594;2023-05-10T07:21:03;12.50;99.90
51595;DHT22;37677;53.254;6.594;2023-05-10T07:23:28;12.70;99.90
51595;DHT22;37677;53.254;6.594;2023-05-10T07:25:55;12.40;99.90
51595;DHT22;37677;53.254;6.594;2023-05-10T07:28:22;12.40;99.90
51595;DHT22;37677;53.254;6.594;2023-05-10T07:30:48;12.80;99.90
51595;DHT22;37677;53.254;6.594;2023-05-10T07:33:14;12.40;99.90
51595;DHT22;37677;53.254;6.594;2023-05-10T07:35:41;12.50;99.90
51595;DHT22;37677;53.254;6.594;2023-05-10T07:38:07;12.60;99.90
51595;DHT22;37677;53.254;6.594;2023-05-10T07:40:33;12.40;99.90
51595;DHT22;37677;53.254;6.594;2023-05-10T07:42:59;12.70;99.90
51595;DHT22;37677;53.254;6.594;2023-05-10T07:45:27;12.60;99.90
51595;DHT22;37677;53.254;6.594;2023-05-10T07:47:52;12.70;99.90
51595;DHT22;37677;53.254;6.594;2023-05-10T07:50:18;13.00;99.90
51595;DHT22;37677;53.254;6.594;2023-05-10T07:52:44;12.80;99.90
51595;DHT22;37677;53.254;6.594;2023-05-10T07:55:09;12.90;99.90
51595;DHT22;37677;53.254;6.594;2023-05-10T07:57:35;12.60;99.90
51595;DHT22;37677;53.254;6.594;2023-05-10T08:00:02;12.60;99.90
51595;DHT22;37677;53.254;6.594;2023-05-10T08:02:28;12.90;99.90
51595;DHT22;37677;53.254;6.594;2023-05-10T08:04:54;12.80;99.90
51595;DHT22;37677;53.254;6.594;2023-05-10T08:07:21;12.80;99.90
51595;DHT22;37677;53.254;6.594;2023-05-10T08:09:46;12.80;99.90
51595;DHT22;37677;53.254;6.594;2023-05-10T08:12:12;12.80;99.90
51595;DHT22;37677;53.254;6.594;2023-05-10T08:14:38;13.90;99.90
51595;DHT22;37677;53.254;6.594;2023-05-10T08:17:03;12.70;99.90
51595;DHT22;37677;53.254;6.594;2023-05-10T08:19:29;12.70;99.90
51595;DHT22;37677;53.254;6.594;2023-05-10T08:21:55;13.30;99.90
51595;DHT22;37677;53.254;6.594;2023-05-10T08:24:21;12.70;99.90
51595;DHT22;37677;53.254;6.594;2023-05-10T08:26:47;12.70;99.90
51595;DHT22;37677;53.254;6.594;2023-05-10T08:29:14;12.70;99.90
51595;DHT22;37677;53.254;6.594;2023-05-10T08:31:39;13.10;99.90
51595;DHT22;37677;53.254;6.594;2023-05-10T08:34:05;12.80;99.90
51595;DHT22;37677;53.254;6.594;2023-05-10T08:36:30;11.80;99.90
51595;DHT22;37677;53.254;6.594;2023-05-10T08:38:57;12.70;99.90
51595;DHT22;37677;53.254;6.594;2023-05-10T08:41:24;12.60;99.90
51595;DHT22;37677;53.254;6.594;2023-05-10T08:43:52;12.90;99.90
51595;DHT22;37677;53.254;6.594;2023-05-10T08:46:20;12.90;99.90
51595;DHT22;37677;53.254;6.594;2023-05-10T08:48:46;13.80;99.90
51595;DHT22;37677;53.254;6.594;2023-05-10T08:51:14;12.90;99.90
51595;DHT22;37677;53.254;6.594;2023-05-10T08:53:40;12.70;99.90
51595;DHT22;37677;53.254;6.594;2023-05-10T08:56:06;12.80;99.90
51595;DHT22;37677;53.254;6.594;2023-05-10T08:58:32;12.70;99.90
51595;DHT22;37677;53.254;6.594;2023-05-10T09:00:59;12.70;99.90
51595;DHT22;37677;53.254;6.594;2023-05-10T09:03:26;12.80;99.90
51595;DHT22;37677;53.254;6.594;2023-05-10T09:05:52;13.70;99.90
51595;DHT22;37677;53.254;6.594;2023-05-10T09:08:17;12.80;99.90
51595;DHT22;37677;53.254;6.594;2023-05-10T09:10:44;13.40;99.90
51595;DHT22;37677;53.254;6.594;2023-05-10T09:13:13;12.90;99.90
51595;DHT22;37677;53.254;6.594;2023-05-10T09:15:39;13.10;99.90
51595;DHT22;37677;53.254;6.594;2023-05-10T09:18:05;12.90;99.90
51595;DHT22;37677;53.254;6.594;2023-05-10T09:20:30;12.90;99.90
51595;DHT22;37677;53.254;6.594;2023-05-10T09:22:56;13.10;99.90
51595;DHT22;37677;53.254;6.594;2023-05-10T09:25:22;13.10;99.90
51595;DHT22;37677;53.254;6.594;2023-05-10T09:27:48;13.90;99.90
51595;DHT22;37677;53.254;6.594;2023-05-10T09:30:30;13.30;99.90
51595;DHT22;37677;53.254;6.594;2023-05-10T09:32:57;13.20;99.90
51595;DHT22;37677;53.254;6.594;2023-05-10T09:35:25;12.90;99.90
51595;DHT22;37677;53.254;6.594;2023-05-10T09:37:53;12.10;99.90
51595;DHT22;37677;53.254;6.594;2023-05-10T09:40:24;13.60;99.90
51595;DHT22;37677;53.254;6.594;2023-05-10T09:43:04;13.40;99.90
51595;DHT22;37677;53.254;6.594;2023-05-10T09:45:32;13.50;99.90
51595;DHT22;37677;53.254;6.594;2023-05-10T09:47:59;14.30;99.90
51595;DHT22;37677;53.254;6.594;2023-05-10T09:50:26;13.60;99.90
51595;DHT22;37677;53.254;6.594;2023-05-10T09:55:21;14.50;99.90
51595;DHT22;37677;53.254;6.594;2023-05-10T09:57:48;13.60;99.90
51595;DHT22;37677;53.254;6.594;2023-05-10T10:00:18;13.50;99.90
51595;DHT22;37677;53.254;6.594;2023-05-10T10:02:57;14.60;99.90
51595;DHT22;37677;53.254;6.594;2023-05-10T10:05:31;15.00;99.90
51595;DHT22;37677;53.254;6.594;2023-05-10T10:07:58;15.50;99.90
51595;DHT22;37677;53.254;6.594;2023-05-10T10:10:24;14.60;99.10
51595;DHT22;37677;53.254;6.594;2023-05-10T10:12:51;14.70;97.30
51595;DHT22;37677;53.254;6.594;2023-05-10T10:15:16;14.80;95.40
51595;DHT22;37677;53.254;6.594;2023-05-10T10:17:43;14.90;83.50
51595;DHT22;37677;53.254;6.594;2023-05-10T10:20:09;14.80;87.90
51595;DHT22;37677;53.254;6.594;2023-05-10T10:22:37;15.10;89.90
51595;DHT22;37677;53.254;6.594;2023-05-10T10:25:04;15.70;85.50
51595;DHT22;37677;53.254;6.594;2023-05-10T10:30:20;15.40;77.20
51595;DHT22;37677;53.254;6.594;2023-05-10T10:33:13;15.10;72.10
51595;DHT22;37677;53.254;6.594;2023-05-10T10:35:44;15.30;77.30
51595;DHT22;37677;53.254;6.594;2023-05-10T10:38:12;15.40;69.60
51595;DHT22;37677;53.254;6.594;2023-05-10T10:40:38;15.20;69.30
51595;DHT22;37677;53.254;6.594;2023-05-10T10:46:14;14.80;72.30
51595;DHT22;37677;53.254;6.594;2023-05-10T10:48:41;14.70;72.50
51595;DHT22;37677;53.254;6.594;2023-05-10T10:51:13;14.90;77.40
51595;DHT22;37677;53.254;6.594;2023-05-10T10:53:39;14.60;83.70
51595;DHT22;37677;53.254;6.594;2023-05-10T10:56:07;14.70;87.70
51595;DHT22;37677;53.254;6.594;2023-05-10T10:58:35;14.90;87.50
51595;DHT22;37677;53.254;6.594;2023-05-10T11:01:15;14.80;83.50
51595;DHT22;37677;53.254;6.594;2023-05-10T11:03:54;14.90;82.10
51595;DHT22;37677;53.254;6.594;2023-05-10T11:06:40;15.40;85.00
51595;DHT22;37677;53.254;6.594;2023-05-10T11:09:09;16.40;69.20
51595;DHT22;37677;53.254;6.594;2023-05-10T11:11:36;15.10;63.50
51595;DHT22;37677;53.254;6.594;2023-05-10T11:14:08;14.80;67.20
51595;DHT22;37677;53.254;6.594;2023-05-10T11:16:43;14.90;66.00
51595;DHT22;37677;53.254;6.594;2023-05-10T11:19:10;14.80;70.40
51595;DHT22;37677;53.254;6.594;2023-05-10T11:24:31;14.30;69.10
51595;DHT22;37677;53.254;6.594;2023-05-10T11:26:57;14.80;75.60
51595;DHT22;37677;53.254;6.594;2023-05-10T11:29:22;14.50;80.00
51595;DHT22;37677;53.254;6.594;2023-05-10T11:31:49;14.90;83.10
51595;DHT22;37677;53.254;6.594;2023-05-10T11:34:27;15.00;88.70
51595;DHT22;37677;53.254;6.594;2023-05-10T11:36:54;15.90;91.00
51595;DHT22;37677;53.254;6.594;2023-05-10T11:39:21;14.80;83.90
51595;DHT22;37677;53.254;6.594;2023-05-10T11:41:50;15.10;78.90
51595;DHT22;37677;53.254;6.594;2023-05-10T11:44:15;16.60;74.90
51595;DHT22;37677;53.254;6.594;2023-05-10T11:46:41;15.00;72.40
51595;DHT22;37677;53.254;6.594;2023-05-10T11:49:07;14.90;68.20
51595;DHT22;37677;53.254;6.594;2023-05-10T11:51:36;14.90;74.60
51595;DHT22;37677;53.254;6.594;2023-05-10T11:54:06;13.70;70.30
51595;DHT22;37677;53.254;6.594;2023-05-10T11:56:33;15.10;76.80
51595;DHT22;37677;53.254;6.594;2023-05-10T11:59:00;15.10;68.20
51595;DHT22;37677;53.254;6.594;2023-05-10T12:01:28;15.10;58.20
51595;DHT22;37677;53.254;6.594;2023-05-10T12:03:56;15.20;60.50
51595;DHT22;37677;53.254;6.594;2023-05-10T12:06:31;15.20;64.80
51595;DHT22;37677;53.254;6.594;2023-05-10T12:08:57;15.30;52.10
51595;DHT22;37677;53.254;6.594;2023-05-10T12:11:27;15.20;55.80
51595;DHT22;37677;53.254;6.594;2023-05-10T12:13:54;15.10;49.80
51595;DHT22;37677;53.254;6.594;2023-05-10T12:16:22;15.60;54.40
51595;DHT22;37677;53.254;6.594;2023-05-10T12:18:49;15.40;50.60
51595;DHT22;37677;53.254;6.594;2023-05-10T12:21:16;15.00;56.30
51595;DHT22;37677;53.254;6.594;2023-05-10T12:23:42;15.20;56.70
51595;DHT22;37677;53.254;6.594;2023-05-10T12:26:10;14.90;62.70
51595;DHT22;37677;53.254;6.594;2023-05-10T12:28:37;15.00;63.60
51595;DHT22;37677;53.254;6.594;2023-05-10T12:31:03;15.00;67.00
51595;DHT22;37677;53.254;6.594;2023-05-10T12:33:43;14.80;68.70
51595;DHT22;37677;53.254;6.594;2023-05-10T12:36:13;14.80;69.50
51595;DHT22;37677;53.254;6.594;2023-05-10T12:41:26;14.80;72.40
51595;DHT22;37677;53.254;6.594;2023-05-10T12:43:52;14.50;71.90
51595;DHT22;37677;53.254;6.594;2023-05-10T12:46:17;14.50;75.00
51595;DHT22;37677;53.254;6.594;2023-05-10T12:48:44;14.60;75.90
51595;DHT22;37677;53.254;6.594;2023-05-10T12:51:11;14.60;74.10
51595;DHT22;37677;53.254;6.594;2023-05-10T12:53:39;14.60;77.50
51595;DHT22;37677;53.254;6.594;2023-05-10T12:56:05;14.60;78.30
51595;DHT22;37677;53.254;6.594;2023-05-10T12:58:31;14.70;77.70
51595;DHT22;37677;53.254;6.594;2023-05-10T13:00:58;14.90;79.50
51595;DHT22;37677;53.254;6.594;2023-05-10T13:03:24;14.80;78.00
51595;DHT22;37677;53.254;6.594;2023-05-10T13:05:49;15.00;76.10
51595;DHT22;37677;53.254;6.594;2023-05-10T13:08:15;15.00;74.00
51595;DHT22;37677;53.254;6.594;2023-05-10T13:10:41;15.70;73.20
51595;DHT22;37677;53.254;6.594;2023-05-10T13:13:06;15.00;67.50
51595;DHT22;37677;53.254;6.594;2023-05-10T13:15:33;15.00;60.30
51595;DHT22;37677;53.254;6.594;2023-05-10T13:17:59;14.90;53.60
51595;DHT22;37677;53.254;6.594;2023-05-10T13:20:25;16.00;57.50
51595;DHT22;37677;53.254;6.594;2023-05-10T13:22:51;15.00;59.10
51595;DHT22;37677;53.254;6.594;2023-05-10T13:25:17;14.90;58.60
51595;DHT22;37677;53.254;6.594;2023-05-10T13:27:42;15.10;54.40
51595;DHT22;37677;53.254;6.594;2023-05-10T13:30:08;15.10;56.10
51595;DHT22;37677;53.254;6.594;2023-05-10T13:32:35;15.30;59.30
51595;DHT22;37677;53.254;6.594;2023-05-10T13:35:01;15.40;50.50
51595;DHT22;37677;53.254;6.594;2023-05-10T13:37:29;15.40;47.40
51595;DHT22;37677;53.254;6.594;2023-05-10T13:39:55;15.50;42.20
51595;DHT22;37677;53.254;6.594;2023-05-10T13:42:22;15.40;44.20
51595;DHT22;37677;53.254;6.594;2023-05-10T13:44:49;15.40;45.40
51595;DHT22;37677;53.254;6.594;2023-05-10T13:47:14;15.60;42.50
51595;DHT22;37677;53.254;6.594;2023-05-10T13:49:40;15.60;40.20
51595;DHT22;37677;53.254;6.594;2023-05-10T13:52:06;15.60;37.60
51595;DHT22;37677;53.254;6.594;2023-05-10T13:54:38;16.00;37.60
51595;DHT22;37677;53.254;6.594;2023-05-10T13:57:04;15.80;37.30
51595;DHT22;37677;53.254;6.594;2023-05-10T13:59:30;15.50;32.60
51595;DHT22;37677;53.254;6.594;2023-05-10T14:01:59;15.60;35.00
51595;DHT22;37677;53.254;6.594;2023-05-10T14:04:28;16.60;30.00
51595;DHT22;37677;53.254;6.594;2023-05-10T14:06:53;15.50;33.40
51595;DHT22;37677;53.254;6.594;2023-05-10T14:09:19;15.60;37.40
51595;DHT22;37677;53.254;6.594;2023-05-10T14:11:45;15.80;47.70
51595;DHT22;37677;53.254;6.594;2023-05-10T14:14:11;16.40;53.30
51595;DHT22;37677;53.254;6.594;2023-05-10T14:16:38;16.70;45.70
51595;DHT22;37677;53.254;6.594;2023-05-10T14:19:03;17.10;35.40
51595;DHT22;37677;53.254;6.594;2023-05-10T14:21:29;16.90;21.10
51595;DHT22;37677;53.254;6.594;2023-05-10T14:23:56;14.70;11.90
51595;DHT22;37677;53.254;6.594;2023-05-10T14:26:22;16.10;12.40
51595;DHT22;37677;53.254;6.594;2023-05-10T14:28:48;16.00;12.50
51595;DHT22;37677;53.254;6.594;2023-05-10T14:31:14;15.90;14.60
51595;DHT22;37677;53.254;6.594;2023-05-10T14:33:40;15.80;18.90
51595;DHT22;37677;53.254;6.594;2023-05-10T14:36:06;15.80;19.00
51595;DHT22;37677;53.254;6.594;2023-05-10T14:38:32;15.70;22.00
51595;DHT22;37677;53.254;6.594;2023-05-10T14:40:58;15.90;24.80
51595;DHT22;37677;53.254;6.594;2023-05-10T14:43:23;15.80;21.30
51595;DHT22;37677;53.254;6.594;2023-05-10T14:45:49;15.80;25.90
51595;DHT22;37677;53.254;6.594;2023-05-10T14:48:15;16.80;29.80
51595;DHT22;37677;53.254;6.594;2023-05-10T14:50:43;15.90;28.20
51595;DHT22;37677;53.254;6.594;2023-05-10T14:53:09;15.90;27.20
51595;DHT22;37677;53.254;6.594;2023-05-10T14:55:35;16.00;27.60
51595;DHT22;37677;53.254;6.594;2023-05-10T14:58:02;16.40;29.70
51595;DHT22;37677;53.254;6.594;2023-05-10T15:00:29;16.30;29.30
51595;DHT22;37677;53.254;6.594;2023-05-10T15:02:54;16.10;28.20
51595;DHT22;37677;53.254;6.594;2023-05-10T15:05:20;16.00;33.10
51595;DHT22;37677;53.254;6.594;2023-05-10T15:07:46;16.00;31.80
51595;DHT22;37677;53.254;6.594;2023-05-10T15:10:11;16.10;35.40
51595;DHT22;37677;53.254;6.594;2023-05-10T15:12:38;16.20;31.30
51595;DHT22;37677;53.254;6.594;2023-05-10T15:15:04;16.20;36.80
51595;DHT22;37677;53.254;6.594;2023-05-10T15:17:30;16.00;28.30
51595;DHT22;37677;53.254;6.594;2023-05-10T15:19:56;16.10;25.90
51595;DHT22;37677;53.254;6.594;2023-05-10T15:22:21;15.00;26.10
51595;DHT22;37677;53.254;6.594;2023-05-10T15:24:47;16.40;27.60
51595;DHT22;37677;53.254;6.594;2023-05-10T15:27:13;16.20;31.40
51595;DHT22;37677;53.254;6.594;2023-05-10T15:29:38;15.90;33.50
51595;DHT22;37677;53.254;6.594;2023-05-10T15:32:04;15.90;29.30
51595;DHT22;37677;53.254;6.594;2023-05-10T15:34:30;16.20;34.60
51595;DHT22;37677;53.254;6.594;2023-05-10T15:36:56;15.60;34.30
51595;DHT22;37677;53.254;6.594;2023-05-10T15:39:21;15.50;25.00
51595;DHT22;37677;53.254;6.594;2023-05-10T15:41:47;16.30;34.50
51595;DHT22;37677;53.254;6.594;2023-05-10T15:44:13;15.40;36.40
51595;DHT22;37677;53.254;6.594;2023-05-10T15:46:38;15.40;29.80
51595;DHT22;37677;53.254;6.594;2023-05-10T15:49:04;15.30;37.30
51595;DHT22;37677;53.254;6.594;2023-05-10T15:51:31;15.20;34.80
51595;DHT22;37677;53.254;6.594;2023-05-10T15:53:58;15.10;43.30
51595;DHT22;37677;53.254;6.594;2023-05-10T15:56:24;15.00;41.20
51595;DHT22;37677;53.254;6.594;2023-05-10T15:58:51;15.00;48.10
51595;DHT22;37677;53.254;6.594;2023-05-10T16:01:16;15.10;40.70